Wendy C — WYB6131 — position and weather

sailwx.info

Track history (hours):
 
Tides and Currents Weather Stations Pressure Air Temp Water Temp Dewpoint Dewpoint Depression Visibility Wind Speed Wind Dir Waves Ship Positions

Wendy C

Owner: Harbor Towing & Fleeting, Inc., Metairie, LA. More information available from US FCC via Universal Licensing System and Coast Guard Vessel Documentation Center.

Last reported at 2016-May-28 07:33 UTC. Time now 2016-May-28 08:02 UTC.
Position N 29°56' W 090°00'.

Length 19 m; draft 3 m.

Type: Towing. MMSI: 366160126.

Date/timePositionNaut miles runAvg speedWind from/ knotsBaromVisibWave heightAir tempDewpointWater temp
2016-May-28 07:33N 29°56' W 090°00'0 0.0
2016-May-28 06:33N 29°56' W 090°00'0 0.0
2016-May-28 05:34N 29°56' W 090°00'0 0.0
2016-May-28 04:33N 29°56' W 090°00'0 0.0
2016-May-28 03:33N 29°56' W 090°00'0 0.0
2016-May-28 02:33N 29°56' W 090°00'0 0.0
2016-May-28 01:34N 29°56' W 090°00'0 0.0
2016-May-28 00:33N 29°56' W 090°00'0 0.0
2016-May-27 23:33N 29°56' W 090°00'0 0.0
2016-May-27 22:34N 29°56' W 090°00'0 0.0
2016-May-27 21:34N 29°56' W 090°00'0 0.0
2016-May-27 20:33N 29°56' W 090°00'0 0.0
2016-May-27 19:33N 29°56' W 090°00'1 1.2
2016-May-27 18:33N 29°56' W 089°59'0 0.0
2016-May-27 17:33N 29°56' W 089°59'2 1.9
2016-May-27 16:33N 29°57' W 090°01'1 1.5
2016-May-27 15:33N 29°58' W 090°01'2 1.8
2016-May-27 14:34N 29°60' W 090°01'0 0.2
2016-May-27 13:34N 29°60' W 090°00'0 0.0
2016-May-27 12:34N 29°60' W 090°00'0 0.0
2016-May-27 11:34N 29°60' W 090°00'2 2.3
2016-May-27 10:33N 29°58' W 090°02'0 0.2
2016-May-27 09:33N 29°58' W 090°02'0 0.3
2016-May-27 08:33N 29°57' W 090°02'2 1.5
2016-May-27 07:33N 29°56' W 090°00'0 0.0
2016-May-27 06:33N 29°56' W 090°00'0 0.0
2016-May-27 05:34N 29°56' W 090°00'0 0.0
2016-May-27 04:33N 29°56' W 090°00'0 0.0
2016-May-27 03:33N 29°56' W 090°00'0 0.0
2016-May-27 02:34N 29°56' W 090°00'0 0.0
2016-May-27 01:34N 29°56' W 090°00'0 0.0
2016-May-27 00:33N 29°56' W 090°00'0 0.4
2016-May-26 23:34N 29°56' W 089°60'0 0.0
2016-May-26 22:34N 29°56' W 089°60'0 0.0
2016-May-26 21:33N 29°56' W 089°60'0 0.0
2016-May-26 20:33N 29°56' W 089°60'0 0.3
2016-May-26 19:34N 29°56' W 090°00'2 2.2
2016-May-26 18:34N 29°58' W 090°02'2 1.8
2016-May-26 17:33N 29°60' W 090°00'2 2.2
2016-May-26 16:34N 29°58' W 090°02'1 0.6
2016-May-26 15:34N 29°57' W 090°01'3 2.6
2016-May-26 14:33N 29°56' W 089°59'1 1.2
2016-May-26 13:33N 29°56' W 090°00'0 0.0
2016-May-26 12:33N 29°56' W 090°00'0 0.0
2016-May-26 11:34N 29°56' W 090°00'0 0.0
2016-May-26 10:34N 29°56' W 090°00'0 0.0
2016-May-26 09:33N 29°56' W 090°00'0 0.0
2016-May-26 08:33N 29°56' W 090°00'0 0.0
2016-May-26 07:33N 29°56' W 090°00'0 0.0
2016-May-26 06:33N 29°56' W 090°00'0 0.0
2016-May-26 05:33N 29°56' W 090°00'0 0.0
2016-May-26 04:34N 29°56' W 090°00'0 0.0
2016-May-26 03:34N 29°56' W 090°00'0 0.0
2016-May-26 02:33N 29°56' W 090°00'0 0.0
2016-May-26 01:33N 29°56' W 090°00'0 0.0
2016-May-26 00:33N 29°56' W 090°00'0 0.0
2016-May-25 23:34N 29°56' W 090°00'0 0.0
2016-May-25 22:34N 29°56' W 090°00'0 0.0
2016-May-25 21:34N 29°56' W 090°00'0 0.0
2016-May-25 20:33N 29°56' W 090°00'0 0.0
2016-May-25 19:34N 29°56' W 090°00'0 0.0
2016-May-25 18:34N 29°56' W 090°00'0 0.0
2016-May-25 17:34N 29°56' W 090°00'2 2.0
2016-May-25 16:34N 29°55' W 089°58'0 0.1
2016-May-25 15:33N 29°55' W 089°58'4 4.1
2016-May-25 14:34N 29°58' W 090°01'2 2.4
2016-May-25 13:33N 29°60' W 089°59'0 0.1
2016-May-25 12:34N 29°60' W 089°59'5 3.3
2016-May-25 11:08N 30°01' W 089°54'4 7.4
2016-May-25 10:33N 29°60' W 089°59'3 3.4
2016-May-25 09:34N 29°58' W 090°02'0 0.4
2016-May-25 08:34N 29°57' W 090°02'1 0.7
2016-May-25 07:34N 29°57' W 090°01'1 0.7
2016-May-25 06:33N 29°56' W 090°00'0 0.0
2016-May-25 05:33N 29°56' W 090°00'0 0.0
2016-May-25 04:34N 29°56' W 090°00'0 0.0
2016-May-25 03:34N 29°56' W 090°00'0 0.0
2016-May-25 02:33N 29°56' W 090°00'0 0.0
2016-May-25 01:33N 29°56' W 090°00'0 0.0
2016-May-25 00:33N 29°56' W 090°00'0 0.0
2016-May-24 23:34N 29°56' W 090°00'0 0.0
2016-May-24 22:34N 29°56' W 090°00'0 0.0
2016-May-24 21:33N 29°56' W 090°00'0 0.0
2016-May-24 20:33N 29°56' W 090°00'0 0.0
2016-May-24 19:33N 29°56' W 090°00'0 0.0
2016-May-24 18:33N 29°56' W 090°00'2 2.0
2016-May-24 17:34N 29°58' W 090°02'1 0.9
2016-May-24 16:33N 29°59' W 090°01'1 1.2
2016-May-24 15:33N 29°60' W 090°00'2 2.2
2016-May-24 14:34N 29°58' W 090°02'1 0.6
2016-May-24 13:33N 29°57' W 090°01'1 1.5
2016-May-24 12:34N 29°56' W 090°00'0 0.0
2016-May-24 11:34N 29°56' W 090°00'0 0.0
2016-May-24 10:33N 29°56' W 090°00'0 0.0
2016-May-24 09:34N 29°56' W 090°00'0 0.0
2016-May-24 08:33N 29°56' W 090°00'0 0.0
2016-May-24 07:33N 29°56' W 090°00'0 0.0
2016-May-24 06:33N 29°56' W 090°00'0 0.0
2016-May-24 05:33N 29°56' W 090°00'0 0.0
2016-May-24 04:33N 29°56' W 090°00'0 0.0
2016-May-24 03:34N 29°56' W 090°00'0 0.0
2016-May-24 02:34N 29°56' W 090°00'0 0.0
2016-May-24 01:33N 29°56' W 090°00'0 0.0
2016-May-24 00:34N 29°56' W 090°00'0 0.0
2016-May-23 23:33N 29°56' W 090°00'0 0.0
2016-May-23 22:25N 29°56' W 090°00'0 0.0
2016-May-23 21:33N 29°56' W 090°00'0 0.0
2016-May-23 20:34N 29°56' W 090°00'0 0.0
2016-May-23 19:33N 29°56' W 090°00'0 0.0
2016-May-23 18:34N 29°56' W 090°00'2 0.5
2016-May-23 14:18N 29°54' W 089°59'0 0.0
2016-May-23 13:32N 29°54' W 089°59'1 1.1
2016-May-23 12:31N 29°55' W 089°58'0 0.4
2016-May-23 11:33N 29°55' W 089°58'0 0.3
2016-May-23 10:33N 29°55' W 089°58'2 2.5
2016-May-23 09:34N 29°56' W 090°00'0 0.0
2016-May-23 08:33N 29°56' W 090°00'0 0.0
2016-May-23 07:34N 29°56' W 090°00'0 0.0
2016-May-23 06:34N 29°56' W 090°00'0 0.0
2016-May-23 05:34N 29°56' W 090°00'2 0.1
2016-May-22 09:33N 29°55' W 089°58'0 0.2
2016-May-22 08:33N 29°55' W 089°58'4 3.9
2016-May-22 07:33N 29°58' W 090°02'4 3.7
2016-May-22 06:34N 30°00' W 089°58'4 3.8
2016-May-22 05:33N 30°01' W 089°54'7 1.2
2016-May-21 23:22N 29°56' W 090°00'2 0.2
2016-May-21 13:33N 29°55' W 089°58'1 1.2
2016-May-21 12:34N 29°54' W 089°59'0 0.0
2016-May-21 11:34N 29°54' W 089°59'0 0.1
2016-May-21 10:34N 29°54' W 089°59'2 1.7
2016-May-21 09:34N 29°55' W 089°58'2 2.2
2016-May-21 08:34N 29°56' W 090°00'0 0.0
2016-May-21 07:33N 29°56' W 090°00'0 0.0
2016-May-21 06:34N 29°56' W 090°00'0 0.0
2016-May-21 05:33N 29°56' W 090°00'0 0.0
2016-May-21 04:34N 29°56' W 090°00'0 0.0
2016-May-21 03:33N 29°56' W 090°00'0 0.0
2016-May-21 02:33N 29°56' W 090°00'0 0.0
2016-May-21 01:34N 29°56' W 090°00'0 0.0
2016-May-21 00:34N 29°56' W 090°00'0 0.0
2016-May-20 23:34N 29°56' W 090°00'0 0.0
2016-May-20 22:34N 29°56' W 090°00'0 0.0
2016-May-20 21:33N 29°56' W 090°00'0 0.0
2016-May-20 20:33N 29°56' W 090°00'0 0.0
2016-May-20 19:28N 29°56' W 090°00'0 0.0
2016-May-20 18:33N 29°56' W 090°00'2 1.6
2016-May-20 17:34N 29°58' W 090°02'3 1.3
2016-May-20 15:31N 29°60' W 090°00'2 2.4
2016-May-20 14:34N 29°58' W 090°02'1 0.6
2016-May-20 13:34N 29°57' W 090°01'1 0.9
2016-May-20 12:33N 29°57' W 090°01'1 0.5
2016-May-20 11:33N 29°56' W 090°00'0 0.0
2016-May-20 10:33N 29°56' W 090°00'0 0.0
2016-May-20 09:33N 29°56' W 090°00'0 0.0
2016-May-20 08:33N 29°56' W 090°00'0 0.0
2016-May-20 07:34N 29°56' W 090°00'0 0.0
2016-May-20 06:33N 29°56' W 090°00'0 0.0
2016-May-20 05:33N 29°56' W 090°00'0 0.0
2016-May-20 03:33N 29°56' W 090°00'0 0.3
2016-May-20 02:33N 29°56' W 090°00'0 0.2
2016-May-20 01:33N 29°56' W 090°00'0 0.0
2016-May-20 00:33N 29°56' W 090°00'0 0.0
2016-May-19 23:34N 29°56' W 090°00'0 0.0
2016-May-19 22:33N 29°56' W 090°00'0 0.0
2016-May-19 21:34N 29°56' W 090°00'0 0.1
2016-May-19 20:33N 29°56' W 090°00'2 2.0
2016-May-19 19:33N 29°58' W 090°02'2 2.1
2016-May-19 18:33N 29°60' W 090°00'1 0.8
2016-May-19 17:33N 29°59' W 090°01'2 1.7
2016-May-19 16:33N 29°58' W 090°02'2 2.4
2016-May-19 15:33N 29°56' W 089°60'0 0.2
2016-May-19 14:34N 29°56' W 089°60'1 0.5
2016-May-19 13:33N 29°56' W 090°00'0 0.0
2016-May-19 12:33N 29°56' W 090°00'0 0.0
2016-May-19 11:33N 29°56' W 090°00'0 0.0
2016-May-19 10:33N 29°56' W 090°00'0 0.0
2016-May-19 09:33N 29°56' W 090°00'0 0.0
2016-May-19 08:34N 29°56' W 090°00'0 0.0
2016-May-19 07:33N 29°56' W 090°00'0 0.0
2016-May-19 06:34N 29°56' W 090°00'0 0.0
2016-May-19 05:34N 29°56' W 090°00'0 0.0
2016-May-19 04:33N 29°56' W 090°00'0 0.0
2016-May-19 03:34N 29°56' W 090°00'0 0.0
2016-May-19 02:33N 29°56' W 090°00'2 2.2
2016-May-19 01:34N 29°55' W 089°58'0 0.0
2016-May-19 00:34N 29°55' W 089°58'4 3.5
2016-May-18 23:34N 29°52' W 090°01'2 2.5
2016-May-18 22:34N 29°50' W 090°03'2 2.1
2016-May-18 21:34N 29°52' W 090°04'1 0.0
2016-May-18 07:33N 29°52' W 090°04'  
Track history (hours):
 
Tides and Currents Weather Stations Pressure Air Temp Water Temp Dewpoint Dewpoint Depression Visibility Wind Speed Wind Dir Waves Ship Positions

Wendy C

Owner: Harbor Towing & Fleeting, Inc., Metairie, LA. More information available from US FCC via Universal Licensing System and Coast Guard Vessel Documentation Center.

Last reported at 2016-May-28 07:33 UTC. Time now 2016-May-28 08:02 UTC.
Position N 29°56' W 090°00'.

Length 19 m; draft 3 m.

Type: Towing. MMSI: 366160126.

Date/timePositionNaut miles runAvg speedWind from/ knotsBaromVisibWave heightAir tempDewpointWater temp
2016-May-28 07:33N 29°56' W 090°00'0 0.0
2016-May-28 06:33N 29°56' W 090°00'0 0.0
2016-May-28 05:34N 29°56' W 090°00'0 0.0
2016-May-28 04:33N 29°56' W 090°00'0 0.0
2016-May-28 03:33N 29°56' W 090°00'0 0.0
2016-May-28 02:33N 29°56' W 090°00'0 0.0
2016-May-28 01:34N 29°56' W 090°00'0 0.0
2016-May-28 00:33N 29°56' W 090°00'0 0.0
2016-May-27 23:33N 29°56' W 090°00'0 0.0
2016-May-27 22:34N 29°56' W 090°00'0 0.0
2016-May-27 21:34N 29°56' W 090°00'0 0.0
2016-May-27 20:33N 29°56' W 090°00'0 0.0
2016-May-27 19:33N 29°56' W 090°00'1 1.2
2016-May-27 18:33N 29°56' W 089°59'0 0.0
2016-May-27 17:33N 29°56' W 089°59'2 1.9
2016-May-27 16:33N 29°57' W 090°01'1 1.5
2016-May-27 15:33N 29°58' W 090°01'2 1.8
2016-May-27 14:34N 29°60' W 090°01'0 0.2
2016-May-27 13:34N 29°60' W 090°00'0 0.0
2016-May-27 12:34N 29°60' W 090°00'0 0.0
2016-May-27 11:34N 29°60' W 090°00'2 2.3
2016-May-27 10:33N 29°58' W 090°02'0 0.2
2016-May-27 09:33N 29°58' W 090°02'0 0.3
2016-May-27 08:33N 29°57' W 090°02'2 1.5
2016-May-27 07:33N 29°56' W 090°00'0 0.0
2016-May-27 06:33N 29°56' W 090°00'0 0.0
2016-May-27 05:34N 29°56' W 090°00'0 0.0
2016-May-27 04:33N 29°56' W 090°00'0 0.0
2016-May-27 03:33N 29°56' W 090°00'0 0.0
2016-May-27 02:34N 29°56' W 090°00'0 0.0
2016-May-27 01:34N 29°56' W 090°00'0 0.0
2016-May-27 00:33N 29°56' W 090°00'0 0.4
2016-May-26 23:34N 29°56' W 089°60'0 0.0
2016-May-26 22:34N 29°56' W 089°60'0 0.0
2016-May-26 21:33N 29°56' W 089°60'0 0.0
2016-May-26 20:33N 29°56' W 089°60'0 0.3
2016-May-26 19:34N 29°56' W 090°00'2 2.2
2016-May-26 18:34N 29°58' W 090°02'2 1.8
2016-May-26 17:33N 29°60' W 090°00'2 2.2
2016-May-26 16:34N 29°58' W 090°02'1 0.6
2016-May-26 15:34N 29°57' W 090°01'3 2.6
2016-May-26 14:33N 29°56' W 089°59'1 1.2
2016-May-26 13:33N 29°56' W 090°00'0 0.0
2016-May-26 12:33N 29°56' W 090°00'0 0.0
2016-May-26 11:34N 29°56' W 090°00'0 0.0
2016-May-26 10:34N 29°56' W 090°00'0 0.0
2016-May-26 09:33N 29°56' W 090°00'0 0.0
2016-May-26 08:33N 29°56' W 090°00'0 0.0
2016-May-26 07:33N 29°56' W 090°00'0 0.0
2016-May-26 06:33N 29°56' W 090°00'0 0.0
2016-May-26 05:33N 29°56' W 090°00'0 0.0
2016-May-26 04:34N 29°56' W 090°00'0 0.0
2016-May-26 03:34N 29°56' W 090°00'0 0.0
2016-May-26 02:33N 29°56' W 090°00'0 0.0
2016-May-26 01:33N 29°56' W 090°00'0 0.0
2016-May-26 00:33N 29°56' W 090°00'0 0.0
2016-May-25 23:34N 29°56' W 090°00'0 0.0
2016-May-25 22:34N 29°56' W 090°00'0 0.0
2016-May-25 21:34N 29°56' W 090°00'0 0.0
2016-May-25 20:33N 29°56' W 090°00'0 0.0
2016-May-25 19:34N 29°56' W 090°00'0 0.0
2016-May-25 18:34N 29°56' W 090°00'0 0.0
2016-May-25 17:34N 29°56' W 090°00'2 2.0
2016-May-25 16:34N 29°55' W 089°58'0 0.1
2016-May-25 15:33N 29°55' W 089°58'4 4.1
2016-May-25 14:34N 29°58' W 090°01'2 2.4
2016-May-25 13:33N 29°60' W 089°59'0 0.1
2016-May-25 12:34N 29°60' W 089°59'5 3.3
2016-May-25 11:08N 30°01' W 089°54'4 7.4
2016-May-25 10:33N 29°60' W 089°59'3 3.4
2016-May-25 09:34N 29°58' W 090°02'0 0.4
2016-May-25 08:34N 29°57' W 090°02'1 0.7
2016-May-25 07:34N 29°57' W 090°01'1 0.7
2016-May-25 06:33N 29°56' W 090°00'0 0.0
2016-May-25 05:33N 29°56' W 090°00'0 0.0
2016-May-25 04:34N 29°56' W 090°00'0 0.0
2016-May-25 03:34N 29°56' W 090°00'0 0.0
2016-May-25 02:33N 29°56' W 090°00'0 0.0
2016-May-25 01:33N 29°56' W 090°00'0 0.0
2016-May-25 00:33N 29°56' W 090°00'0 0.0
2016-May-24 23:34N 29°56' W 090°00'0 0.0
2016-May-24 22:34N 29°56' W 090°00'0 0.0
2016-May-24 21:33N 29°56' W 090°00'0 0.0
2016-May-24 20:33N 29°56' W 090°00'0 0.0
2016-May-24 19:33N 29°56' W 090°00'0 0.0
2016-May-24 18:33N 29°56' W 090°00'2 2.0
2016-May-24 17:34N 29°58' W 090°02'1 0.9
2016-May-24 16:33N 29°59' W 090°01'1 1.2
2016-May-24 15:33N 29°60' W 090°00'2 2.2
2016-May-24 14:34N 29°58' W 090°02'1 0.6
2016-May-24 13:33N 29°57' W 090°01'1 1.5
2016-May-24 12:34N 29°56' W 090°00'0 0.0
2016-May-24 11:34N 29°56' W 090°00'0 0.0
2016-May-24 10:33N 29°56' W 090°00'0 0.0
2016-May-24 09:34N 29°56' W 090°00'0 0.0
2016-May-24 08:33N 29°56' W 090°00'0 0.0
2016-May-24 07:33N 29°56' W 090°00'0 0.0
2016-May-24 06:33N 29°56' W 090°00'0 0.0
2016-May-24 05:33N 29°56' W 090°00'0 0.0
2016-May-24 04:33N 29°56' W 090°00'0 0.0
2016-May-24 03:34N 29°56' W 090°00'0 0.0
2016-May-24 02:34N 29°56' W 090°00'0 0.0
2016-May-24 01:33N 29°56' W 090°00'0 0.0
2016-May-24 00:34N 29°56' W 090°00'0 0.0
2016-May-23 23:33N 29°56' W 090°00'0 0.0
2016-May-23 22:25N 29°56' W 090°00'0 0.0
2016-May-23 21:33N 29°56' W 090°00'0 0.0
2016-May-23 20:34N 29°56' W 090°00'0 0.0
2016-May-23 19:33N 29°56' W 090°00'0 0.0
2016-May-23 18:34N 29°56' W 090°00'2 0.5
2016-May-23 14:18N 29°54' W 089°59'0 0.0
2016-May-23 13:32N 29°54' W 089°59'1 1.1
2016-May-23 12:31N 29°55' W 089°58'0 0.4
2016-May-23 11:33N 29°55' W 089°58'0 0.3
2016-May-23 10:33N 29°55' W 089°58'2 2.5
2016-May-23 09:34N 29°56' W 090°00'0 0.0
2016-May-23 08:33N 29°56' W 090°00'0 0.0
2016-May-23 07:34N 29°56' W 090°00'0 0.0
2016-May-23 06:34N 29°56' W 090°00'0 0.0
2016-May-23 05:34N 29°56' W 090°00'2 0.1
2016-May-22 09:33N 29°55' W 089°58'0 0.2
2016-May-22 08:33N 29°55' W 089°58'4 3.9
2016-May-22 07:33N 29°58' W 090°02'4 3.7
2016-May-22 06:34N 30°00' W 089°58'4 3.8
2016-May-22 05:33N 30°01' W 089°54'7 1.2
2016-May-21 23:22N 29°56' W 090°00'2 0.2
2016-May-21 13:33N 29°55' W 089°58'1 1.2
2016-May-21 12:34N 29°54' W 089°59'0 0.0
2016-May-21 11:34N 29°54' W 089°59'0 0.1
2016-May-21 10:34N 29°54' W 089°59'2 1.7
2016-May-21 09:34N 29°55' W 089°58'2 2.2
2016-May-21 08:34N 29°56' W 090°00'0 0.0
2016-May-21 07:33N 29°56' W 090°00'0 0.0
2016-May-21 06:34N 29°56' W 090°00'0 0.0
2016-May-21 05:33N 29°56' W 090°00'0 0.0
2016-May-21 04:34N 29°56' W 090°00'0 0.0
2016-May-21 03:33N 29°56' W 090°00'0 0.0
2016-May-21 02:33N 29°56' W 090°00'0 0.0
2016-May-21 01:34N 29°56' W 090°00'0 0.0
2016-May-21 00:34N 29°56' W 090°00'0 0.0
2016-May-20 23:34N 29°56' W 090°00'0 0.0
2016-May-20 22:34N 29°56' W 090°00'0 0.0
2016-May-20 21:33N 29°56' W 090°00'0 0.0
2016-May-20 20:33N 29°56' W 090°00'0 0.0
2016-May-20 19:28N 29°56' W 090°00'0 0.0
2016-May-20 18:33N 29°56' W 090°00'2 1.6
2016-May-20 17:34N 29°58' W 090°02'3 1.3
2016-May-20 15:31N 29°60' W 090°00'2 2.4
2016-May-20 14:34N 29°58' W 090°02'1 0.6
2016-May-20 13:34N 29°57' W 090°01'1 0.9
2016-May-20 12:33N 29°57' W 090°01'1 0.5
2016-May-20 11:33N 29°56' W 090°00'0 0.0
2016-May-20 10:33N 29°56' W 090°00'0 0.0
2016-May-20 09:33N 29°56' W 090°00'0 0.0
2016-May-20 08:33N 29°56' W 090°00'0 0.0
2016-May-20 07:34N 29°56' W 090°00'0 0.0
2016-May-20 06:33N 29°56' W 090°00'0 0.0
2016-May-20 05:33N 29°56' W 090°00'0 0.0
2016-May-20 03:33N 29°56' W 090°00'0 0.3
2016-May-20 02:33N 29°56' W 090°00'0 0.2
2016-May-20 01:33N 29°56' W 090°00'0 0.0
2016-May-20 00:33N 29°56' W 090°00'0 0.0
2016-May-19 23:34N 29°56' W 090°00'0 0.0
2016-May-19 22:33N 29°56' W 090°00'0 0.0
2016-May-19 21:34N 29°56' W 090°00'0 0.1
2016-May-19 20:33N 29°56' W 090°00'2 2.0
2016-May-19 19:33N 29°58' W 090°02'2 2.1
2016-May-19 18:33N 29°60' W 090°00'1 0.8
2016-May-19 17:33N 29°59' W 090°01'2 1.7
2016-May-19 16:33N 29°58' W 090°02'2 2.4
2016-May-19 15:33N 29°56' W 089°60'0 0.2
2016-May-19 14:34N 29°56' W 089°60'1 0.5
2016-May-19 13:33N 29°56' W 090°00'0 0.0
2016-May-19 12:33N 29°56' W 090°00'0 0.0
2016-May-19 11:33N 29°56' W 090°00'0 0.0
2016-May-19 10:33N 29°56' W 090°00'0 0.0
2016-May-19 09:33N 29°56' W 090°00'0 0.0
2016-May-19 08:34N 29°56' W 090°00'0 0.0
2016-May-19 07:33N 29°56' W 090°00'0 0.0
2016-May-19 06:34N 29°56' W 090°00'0 0.0
2016-May-19 05:34N 29°56' W 090°00'0 0.0
2016-May-19 04:33N 29°56' W 090°00'0 0.0
2016-May-19 03:34N 29°56' W 090°00'0 0.0
2016-May-19 02:33N 29°56' W 090°00'2 2.2
2016-May-19 01:34N 29°55' W 089°58'0 0.0
2016-May-19 00:34N 29°55' W 089°58'4 3.5
2016-May-18 23:34N 29°52' W 090°01'2 2.5
2016-May-18 22:34N 29°50' W 090°03'2 2.1
2016-May-18 21:34N 29°52' W 090°04'1 0.0
2016-May-18 07:33N 29°52' W 090°04'  

Dump ship's entire track history